Time;durP1;ratioP1;P1;durP2;ratioP2;P2;SDS_P1;SDS_P2;PMS_P1;PMS_P2;Temp;Humidity;BMP_temperature;BMP_pressure;BME280_temperature;BME280_humidity;BME280_pressure;Samples;Min_cycle;Max_cycle;Signal;HPM_P1;HPM_P2
2023/12/24 00:01:11;;;;;;;7.47;1.73;;;9.20;99.90;;;;;;5080108;28;20272;-69
2023/12/24 00:03:37;;;;;;;13.15;2.30;;;9.20;99.90;;;;;;5093934;28;20262;-69
2023/12/24 00:06:04;;;;;;;14.07;2.47;;;9.20;99.90;;;;;;5083940;28;20040;-69
2023/12/24 00:08:29;;;;;;;13.00;1.95;;;9.20;99.90;;;;;;5084993;28;20040;-69
2023/12/24 00:10:56;;;;;;;10.27;2.13;;;9.20;99.90;;;;;;5081439;28;20048;-69
2023/12/24 00:13:22;;;;;;;;;;;9.10;99.90;;;;;;5094442;28;20408;-69
2023/12/24 00:15:48;;;;;;;5.47;2.25;;;9.20;99.90;;;;;;5083408;28;19924;-69
2023/12/24 00:18:13;;;;;;;14.73;2.58;;;9.20;99.90;;;;;;5084513;28;20032;-69
2023/12/24 00:20:39;;;;;;;8.63;2.27;;;9.20;99.90;;;;;;5088891;28;20040;-69
2023/12/24 00:23:06;;;;;;;12.85;2.47;;;9.20;99.90;;;;;;5085883;28;20043;-70
2023/12/24 00:25:34;;;;;;;8.38;1.67;;;9.20;99.90;;;;;;5065077;28;20036;-69
2023/12/24 00:27:59;;;;;;;13.32;2.28;;;9.20;99.90;;;;;;5084355;28;20075;-69
2023/12/24 00:30:28;;;;;;;9.03;1.70;;;9.10;99.90;;;;;;5085328;28;20136;-69
2023/12/24 00:32:55;;;;;;;9.73;1.95;;;9.20;99.90;;;;;;5077831;28;20050;-70
2023/12/24 00:35:24;;;;;;;8.23;1.80;;;9.20;99.90;;;;;;5082793;28;20048;-70
2023/12/24 00:37:50;;;;;;;11.40;2.00;;;9.20;99.90;;;;;;5084424;28;20048;-70
2023/12/24 00:40:16;;;;;;;9.93;2.17;;;9.20;99.90;;;;;;5082581;28;20048;-69
2023/12/24 00:42:42;;;;;;;10.95;2.13;;;9.20;99.90;;;;;;5082789;28;20060;-69
2023/12/24 00:45:09;;;;;;;12.23;1.90;;;9.20;99.90;;;;;;5081177;28;20032;-70
2023/12/24 00:47:35;;;;;;;;;;;9.20;99.90;;;;;;5085695;28;20289;-69
2023/12/24 00:50:00;;;;;;;7.15;1.88;;;9.20;99.90;;;;;;5085128;28;19916;-69
2023/12/24 00:52:26;;;;;;;7.47;1.40;;;9.20;99.90;;;;;;5075757;28;20066;-69
2023/12/24 00:54:51;;;;;;;16.17;2.57;;;9.10;99.90;;;;;;5086531;28;20039;-69
2023/12/24 00:57:17;;;;;;;9.07;2.23;;;9.20;99.90;;;;;;5088386;28;20049;-69
2023/12/24 00:59:43;;;;;;;16.47;3.53;;;9.20;99.90;;;;;;5082766;28;20369;-69
2023/12/24 01:02:08;;;;;;;9.65;2.33;;;9.20;99.90;;;;;;5084084;28;20044;-69
2023/12/24 01:04:34;;;;;;;13.40;1.67;;;9.20;99.90;;;;;;5083022;28;20044;-70
2023/12/24 01:07:00;;;;;;;13.40;1.90;;;9.20;99.90;;;;;;5085827;28;20179;-69
2023/12/24 01:09:26;;;;;;;8.55;1.88;;;9.20;99.90;;;;;;5078774;28;20051;-70
2023/12/24 01:11:53;;;;;;;6.95;1.42;;;9.20;99.90;;;;;;5071587;28;20048;-69
2023/12/24 01:14:18;;;;;;;;;;;9.10;99.90;;;;;;5089146;28;20059;-70
2023/12/24 01:16:44;;;;;;;15.68;3.08;;;9.10;99.90;;;;;;5085829;28;20399;-70
2023/12/24 01:19:10;;;;;;;11.10;2.10;;;9.10;99.90;;;;;;5087758;28;20046;-69
2023/12/24 01:21:35;;;;;;;10.43;2.60;;;9.10;99.90;;;;;;5064312;28;20055;-69
2023/12/24 01:24:01;;;;;;;8.43;1.50;;;9.10;99.90;;;;;;5079268;28;20044;-69
2023/12/24 01:26:26;;;;;;;8.07;2.33;;;9.20;99.90;;;;;;5091138;27;20047;-70
2023/12/24 01:28:52;;;;;;;10.00;2.13;;;9.20;99.90;;;;;;5080598;28;20476;-69
2023/12/24 01:31:19;;;;;;;12.60;2.00;;;9.20;99.90;;;;;;5078523;28;20058;-69
2023/12/24 01:33:45;;;;;;;15.05;2.38;;;9.20;99.90;;;;;;5086860;28;20044;-70
2023/12/24 01:36:11;;;;;;;7.72;1.77;;;9.10;99.90;;;;;;5083315;28;20072;-70
2023/12/24 01:38:37;;;;;;;10.40;2.03;;;9.10;99.90;;;;;;5081422;28;20136;-71
2023/12/24 01:41:03;;;;;;;5.97;1.55;;;9.10;99.90;;;;;;5081391;28;20043;-71
2023/12/24 01:43:29;;;;;;;6.15;2.20;;;9.10;99.90;;;;;;5085857;28;20048;-72
2023/12/24 01:45:56;;;;;;;8.32;1.73;;;9.10;99.90;;;;;;5081333;28;20247;-75
2023/12/24 01:48:22;;;;;;;9.30;1.83;;;9.20;99.90;;;;;;5079739;28;20044;-69
2023/12/24 01:50:49;;;;;;;10.27;2.30;;;9.20;99.90;;;;;;5087019;28;20343;-69
2023/12/24 01:53:17;;;;;;;8.68;2.05;;;9.20;99.90;;;;;;5063776;28;20093;-71
2023/12/24 01:55:46;;;;;;;8.52;1.50;;;9.20;99.90;;;;;;5083859;28;20416;-70
2023/12/24 01:58:12;;;;;;;11.50;1.45;;;9.10;99.90;;;;;;5070584;28;20044;-70
2023/12/24 02:00:38;;;;;;;9.88;1.70;;;9.20;99.90;;;;;;5066278;28;20447;-69
2023/12/24 02:03:05;;;;;;;8.48;1.40;;;9.20;99.90;;;;;;5083650;28;20435;-71
2023/12/24 02:05:31;;;;;;;8.38;1.50;;;9.20;99.90;;;;;;5086151;28;20047;-70
2023/12/24 02:07:58;;;;;;;6.45;1.77;;;9.20;99.90;;;;;;5075453;28;20055;-71
2023/12/24 02:10:24;;;;;;;14.13;1.80;;;9.20;99.90;;;;;;5080856;28;20078;-71
2023/12/24 02:12:50;;;;;;;6.22;1.65;;;9.20;99.90;;;;;;5084581;28;20127;-71
2023/12/24 02:15:17;;;;;;;8.10;1.88;;;9.20;99.90;;;;;;5082818;28;20040;-71
2023/12/24 02:17:46;;;;;;;10.27;1.50;;;9.20;99.90;;;;;;5085876;28;20044;-71
2023/12/24 02:20:12;;;;;;;14.40;1.73;;;9.20;99.90;;;;;;5086060;28;20097;-71
2023/12/24 02:22:38;;;;;;;15.02;1.67;;;9.20;99.90;;;;;;5081891;28;20048;-71
2023/12/24 02:25:05;;;;;;;6.20;2.47;;;9.30;99.90;;;;;;5084572;28;20042;-71
2023/12/24 02:27:46;;;;;;;6.88;1.52;;;9.30;99.90;;;;;;5064540;28;20044;-70
2023/12/24 02:30:18;;;;;;;14.10;2.30;;;9.30;99.90;;;;;;5082662;28;20135;-71
2023/12/24 02:32:47;;;;;;;10.20;1.63;;;9.30;99.90;;;;;;5080610;28;20050;-71
2023/12/24 02:35:14;;;;;;;8.13;2.13;;;9.30;99.90;;;;;;5081377;28;20047;-71
2023/12/24 02:37:39;;;;;;;8.43;1.77;;;9.30;99.90;;;;;;5081643;28;20032;-71
2023/12/24 02:40:06;;;;;;;10.00;1.60;;;9.30;99.90;;;;;;5083769;28;20105;-71
2023/12/24 02:42:31;;;;;;;7.45;1.50;;;9.30;99.90;;;;;;5082151;28;20479;-70
2023/12/24 02:44:57;;;;;;;9.27;1.60;;;9.30;99.90;;;;;;5078987;28;20040;-71
2023/12/24 02:47:22;;;;;;;4.53;1.50;;;9.30;99.90;;;;;;5079309;28;20496;-71
2023/12/24 02:49:48;;;;;;;8.30;1.40;;;9.30;99.90;;;;;;5083466;28;20047;-71
2023/12/24 02:52:13;;;;;;;11.37;1.87;;;9.30;99.90;;;;;;5081468;28;20119;-71
2023/12/24 02:54:39;;;;;;;11.60;1.67;;;9.30;99.90;;;;;;5079501;28;20209;-71
2023/12/24 02:57:05;;;;;;;14.20;1.93;;;9.30;99.90;;;;;;5082902;28;20420;-71
2023/12/24 02:59:30;;;;;;;7.20;1.57;;;9.30;99.90;;;;;;5063348;28;20039;-70
2023/12/24 03:01:56;;;;;;;9.87;1.77;;;9.30;99.90;;;;;;5078455;28;20115;-71
2023/12/24 03:04:21;;;;;;;15.63;1.43;;;9.30;99.90;;;;;;5085477;28;20094;-70
2023/12/24 03:06:47;;;;;;;8.57;1.20;;;9.30;99.90;;;;;;5079349;28;20105;-70
2023/12/24 03:09:13;;;;;;;9.73;1.67;;;9.30;99.90;;;;;;5081225;28;20407;-70
2023/12/24 03:11:38;;;;;;;6.00;1.10;;;9.30;99.90;;;;;;5078770;28;20140;-71
2023/12/24 03:14:04;;;;;;;6.80;1.40;;;9.30;99.90;;;;;;5082675;28;20153;-70
2023/12/24 03:16:29;;;;;;;8.23;1.43;;;9.30;99.90;;;;;;5081901;28;20098;-71
2023/12/24 03:18:55;;;;;;;8.47;1.43;;;9.40;99.90;;;;;;5081167;28;20077;-70
2023/12/24 03:21:20;;;;;;;6.07;1.57;;;9.40;99.90;;;;;;5083243;28;20348;-71
2023/12/24 03:23:46;;;;;;;6.63;1.53;;;9.40;99.90;;;;;;5078779;28;20032;-71
2023/12/24 03:26:19;;;;;;;6.90;1.50;;;9.40;99.90;;;;;;5085031;28;20079;-71
2023/12/24 03:28:45;;;;;;;8.38;1.23;;;9.40;99.90;;;;;;5083475;28;20076;-71
2023/12/24 03:31:11;;;;;;;9.70;1.63;;;9.40;99.90;;;;;;5078230;28;20146;-70
2023/12/24 03:33:37;;;;;;;5.60;1.10;;;9.40;99.90;;;;;;5088625;28;20043;-70
2023/12/24 03:36:03;;;;;;;4.83;1.53;;;9.50;99.90;;;;;;5080164;28;20044;-71
2023/12/24 03:38:28;;;;;;;5.70;0.90;;;9.40;99.90;;;;;;5085099;28;20129;-70
2023/12/24 03:40:54;;;;;;;6.30;1.10;;;9.40;99.90;;;;;;5081408;28;20036;-71
2023/12/24 03:43:20;;;;;;;6.73;1.40;;;9.50;99.90;;;;;;5082301;28;20040;-70
2023/12/24 03:45:46;;;;;;;4.17;0.90;;;9.40;99.90;;;;;;5082965;28;20200;-70
2023/12/24 03:48:12;;;;;;;6.60;1.45;;;9.50;99.90;;;;;;5083868;28;20500;-70
2023/12/24 03:50:37;;;;;;;3.50;1.00;;;9.50;99.90;;;;;;5080567;28;20140;-71
2023/12/24 03:53:03;;;;;;;4.03;1.10;;;9.50;99.90;;;;;;5085154;28;20059;-71
2023/12/24 03:55:29;;;;;;;4.68;1.05;;;9.40;99.90;;;;;;5084731;28;20477;-71
2023/12/24 03:57:54;;;;;;;5.53;1.43;;;9.50;99.90;;;;;;5085150;28;20044;-71
2023/12/24 04:00:20;;;;;;;2.63;1.10;;;9.50;99.90;;;;;;5085029;28;20519;-70
2023/12/24 04:02:46;;;;;;;4.73;1.10;;;9.50;99.90;;;;;;5088482;28;20060;-71
2023/12/24 04:05:12;;;;;;;3.10;1.30;;;9.50;99.90;;;;;;5089795;28;20043;-70
2023/12/24 04:07:38;;;;;;;1.60;0.90;;;9.50;99.90;;;;;;5084725;28;20554;-70
2023/12/24 04:10:04;;;;;;;1.53;0.83;;;9.50;99.90;;;;;;5080515;28;20052;-70
2023/12/24 04:12:30;;;;;;;1.95;0.80;;;9.50;99.90;;;;;;5086283;28;20367;-71
2023/12/24 04:14:55;;;;;;;2.17;1.10;;;9.50;99.90;;;;;;5080217;28;20198;-70
2023/12/24 04:17:21;;;;;;;5.10;0.90;;;9.50;99.90;;;;;;5083552;28;20401;-71
2023/12/24 04:19:46;;;;;;;4.17;1.10;;;9.50;99.90;;;;;;5088796;28;20570;-71
2023/12/24 04:22:12;;;;;;;5.90;1.10;;;9.50;99.90;;;;;;5080406;28;20059;-71
2023/12/24 04:24:38;;;;;;;2.53;1.00;;;9.50;99.90;;;;;;5084776;28;20077;-71
2023/12/24 04:27:04;;;;;;;4.95;0.98;;;9.50;99.90;;;;;;5084399;28;20101;-70
2023/12/24 04:29:30;;;;;;;5.03;0.90;;;9.50;99.90;;;;;;5077888;28;20546;-71
2023/12/24 04:31:56;;;;;;;4.20;1.23;;;9.60;99.90;;;;;;5081102;28;20185;-71
2023/12/24 04:34:21;;;;;;;3.17;0.87;;;9.60;99.90;;;;;;5084299;28;20067;-70
2023/12/24 04:36:47;;;;;;;6.13;1.20;;;9.50;99.90;;;;;;5084247;28;20678;-71
2023/12/24 04:39:13;;;;;;;2.93;1.17;;;9.50;99.90;;;;;;5085647;28;20119;-71
2023/12/24 04:41:38;;;;;;;6.07;1.50;;;9.60;99.90;;;;;;5080666;28;20036;-70
2023/12/24 04:44:04;;;;;;;8.87;1.67;;;9.60;99.90;;;;;;5085192;28;20044;-71
2023/12/24 04:46:30;;;;;;;3.50;0.73;;;9.60;99.90;;;;;;5079063;28;20137;-71
2023/12/24 04:48:55;;;;;;;2.57;1.03;;;9.70;99.90;;;;;;5093833;28;20045;-71
2023/12/24 04:51:22;;;;;;;3.90;1.20;;;9.60;99.90;;;;;;5082962;28;20048;-71
2023/12/24 04:53:47;;;;;;;6.18;0.98;;;9.60;99.90;;;;;;5077787;28;20116;-71
2023/12/24 04:56:20;;;;;;;4.88;1.38;;;9.60;99.90;;;;;;5084758;28;20056;-70
2023/12/24 04:58:46;;;;;;;5.53;1.00;;;9.70;99.90;;;;;;5084612;28;20119;-71
2023/12/24 05:01:15;;;;;;;6.07;1.83;;;9.60;99.90;;;;;;5070270;28;20559;-70
2023/12/24 05:03:41;;;;;;;5.65;1.20;;;9.70;99.90;;;;;;5086089;28;20036;-71
2023/12/24 05:06:07;;;;;;;10.82;1.27;;;9.70;99.90;;;;;;5079847;28;20392;-71
2023/12/24 05:08:32;;;;;;;4.93;1.77;;;9.70;99.90;;;;;;5079432;28;20040;-71
2023/12/24 05:11:04;;;;;;;6.17;1.83;;;9.70;99.90;;;;;;5080951;28;20052;-71
2023/12/24 05:13:29;;;;;;;4.85;1.35;;;9.70;99.90;;;;;;5080393;28;20055;-72
2023/12/24 05:15:55;;;;;;;10.17;1.73;;;9.70;99.90;;;;;;5080365;28;20036;-71
2023/12/24 05:18:21;;;;;;;9.80;1.73;;;9.80;99.90;;;;;;5074203;28;20554;-71
2023/12/24 05:20:46;;;;;;;17.43;2.30;;;9.80;99.90;;;;;;5084595;28;20326;-71
2023/12/24 05:23:12;;;;;;;6.33;1.57;;;9.80;99.90;;;;;;5072858;28;20289;-71
2023/12/24 05:25:40;;;;;;;8.73;1.40;;;9.80;99.90;;;;;;5078428;28;20040;-71
2023/12/24 05:28:06;;;;;;;16.65;2.03;;;9.80;99.90;;;;;;5078752;28;20078;-71
2023/12/24 05:30:31;;;;;;;5.70;1.50;;;9.80;99.90;;;;;;5077559;28;20424;-71
2023/12/24 05:32:57;;;;;;;8.00;1.87;;;9.80;99.90;;;;;;5085585;28;20175;-71
2023/12/24 05:35:23;;;;;;;11.40;1.97;;;9.80;99.90;;;;;;5075424;28;20069;-70
2023/12/24 05:37:48;;;;;;;9.48;2.15;;;9.80;99.90;;;;;;5083587;28;20044;-71
2023/12/24 05:40:14;;;;;;;15.43;2.03;;;9.90;99.90;;;;;;5080728;28;20092;-71
2023/12/24 05:42:42;;;;;;;6.53;1.90;;;9.90;99.90;;;;;;5062474;28;20301;-71
2023/12/24 05:45:11;;;;;;;14.48;1.98;;;9.90;99.90;;;;;;5081164;28;20451;-71
2023/12/24 05:47:36;;;;;;;13.52;2.35;;;10.00;99.90;;;;;;5073600;28;20047;-71
2023/12/24 05:50:04;;;;;;;19.93;2.10;;;10.00;99.90;;;;;;5080550;28;20052;-71
2023/12/24 05:52:30;;;;;;;12.70;1.90;;;10.00;99.90;;;;;;5078413;28;20044;-71
2023/12/24 05:54:55;;;;;;;11.83;2.23;;;10.00;99.90;;;;;;5083732;28;20519;-71
2023/12/24 05:57:21;;;;;;;13.33;1.67;;;10.00;99.90;;;;;;5082968;28;20051;-71
2023/12/24 05:59:47;;;;;;;9.97;2.00;;;10.00;99.90;;;;;;5085532;28;20485;-71
2023/12/24 06:02:12;;;;;;;8.33;1.87;;;10.10;99.90;;;;;;5081833;28;20036;-71
2023/12/24 06:04:38;;;;;;;9.37;1.60;;;10.00;99.90;;;;;;5079717;28;20105;-71
2023/12/24 06:07:04;;;;;;;10.73;1.90;;;10.10;99.90;;;;;;5079927;28;20059;-71
2023/12/24 06:09:30;;;;;;;7.95;1.27;;;10.10;99.90;;;;;;5080243;28;20044;-71
2023/12/24 06:11:56;;;;;;;11.90;1.88;;;10.10;99.90;;;;;;5084948;28;20040;-71
2023/12/24 06:14:22;;;;;;;11.13;2.07;;;10.10;99.90;;;;;;5078916;28;20106;-71
2023/12/24 06:16:47;;;;;;;11.63;1.75;;;10.10;99.90;;;;;;5075843;28;20650;-71
2023/12/24 06:19:13;;;;;;;10.53;1.90;;;10.10;99.90;;;;;;5085427;28;20036;-71
2023/12/24 06:21:39;;;;;;;8.53;2.10;;;10.20;99.90;;;;;;5075871;28;20162;-71
2023/12/24 06:24:05;;;;;;;10.65;1.80;;;10.10;99.90;;;;;;5081457;28;20044;-72
2023/12/24 06:26:32;;;;;;;10.77;1.67;;;10.10;99.90;;;;;;5060325;28;20603;-71
2023/12/24 06:28:58;;;;;;;5.82;1.33;;;10.10;99.90;;;;;;5081063;28;20445;-69
2023/12/24 06:31:24;;;;;;;5.57;1.40;;;10.10;99.90;;;;;;5077863;28;20089;-70
2023/12/24 06:33:50;;;;;;;10.45;1.77;;;10.20;99.90;;;;;;5081931;28;20451;-70
2023/12/24 06:36:17;;;;;;;5.15;1.17;;;10.10;99.90;;;;;;5080578;28;20435;-70
2023/12/24 06:38:43;;;;;;;12.48;2.55;;;10.10;99.90;;;;;;5072706;28;20048;-70
2023/12/24 06:41:09;;;;;;;10.05;2.28;;;10.20;99.90;;;;;;5084423;28;20173;-70
2023/12/24 06:43:38;;;;;;;26.80;2.90;;;10.10;99.90;;;;;;5056595;28;20190;-72
2023/12/24 06:46:11;;;;;;;17.58;1.77;;;10.10;99.90;;;;;;5080771;28;20036;-70
2023/12/24 06:48:38;;;;;;;9.52;1.27;;;10.10;99.90;;;;;;5058259;28;20446;-70
2023/12/24 06:51:03;;;;;;;;;;;10.20;99.90;;;;;;5064690;28;20040;-70
2023/12/24 06:53:29;;;;;;;11.30;2.30;;;10.20;99.90;;;;;;5076266;28;19991;-70
2023/12/24 06:55:55;;;;;;;4.90;1.20;;;10.20;99.90;;;;;;5079258;28;20032;-70
2023/12/24 06:58:20;;;;;;;14.87;1.60;;;10.20;99.90;;;;;;5078861;28;20040;-70
2023/12/24 07:00:46;;;;;;;18.73;2.27;;;10.20;99.90;;;;;;5078942;28;20040;-70
2023/12/24 07:03:12;;;;;;;9.17;1.90;;;10.20;99.90;;;;;;5075546;28;20076;-70
2023/12/24 07:05:38;;;;;;;11.70;1.75;;;10.20;99.90;;;;;;5083475;28;20238;-70
2023/12/24 07:08:07;;;;;;;6.90;1.60;;;10.30;99.90;;;;;;5088220;28;20060;-70
2023/12/24 07:10:33;;;;;;;7.60;1.00;;;10.30;99.90;;;;;;5086161;28;20066;-70
2023/12/24 07:12:58;;;;;;;17.00;1.85;;;10.30;99.90;;;;;;5085313;28;20446;-70
2023/12/24 07:15:24;;;;;;;13.73;1.60;;;10.30;99.90;;;;;;5081366;28;20109;-70
2023/12/24 07:17:50;;;;;;;10.00;1.83;;;10.40;99.90;;;;;;5085683;28;20047;-70
2023/12/24 07:20:16;;;;;;;9.82;1.52;;;10.40;99.90;;;;;;5082137;28;20044;-70
2023/12/24 07:22:42;;;;;;;10.40;2.45;;;10.30;99.90;;;;;;5068796;28;20043;-70
2023/12/24 07:25:08;;;;;;;5.65;1.52;;;10.40;99.90;;;;;;5082058;28;20640;-70
2023/12/24 07:27:34;;;;;;;15.15;1.55;;;10.50;99.90;;;;;;5080061;28;20535;-70
2023/12/24 07:29:59;;;;;;;12.80;2.20;;;10.50;99.90;;;;;;5084111;28;20040;-70
2023/12/24 07:32:25;;;;;;;8.07;3.00;;;10.50;99.90;;;;;;5068966;28;20043;-70
2023/12/24 07:34:51;;;;;;;9.13;1.60;;;10.40;99.90;;;;;;5086258;28;20063;-70
2023/12/24 07:37:17;;;;;;;7.53;1.80;;;10.50;99.90;;;;;;5080247;28;20043;-70
2023/12/24 07:39:43;;;;;;;13.20;1.60;;;10.50;99.90;;;;;;5090534;28;20604;-70
2023/12/24 07:42:08;;;;;;;13.68;1.48;;;10.60;99.90;;;;;;5086055;27;20082;-70
2023/12/24 07:44:34;;;;;;;9.82;1.58;;;10.50;99.90;;;;;;5075251;28;20259;-70
2023/12/24 07:47:00;;;;;;;13.00;1.70;;;10.50;99.90;;;;;;5080991;28;20096;-70
2023/12/24 07:49:26;;;;;;;8.93;1.73;;;10.50;99.90;;;;;;5089420;28;20449;-70
2023/12/24 07:51:52;;;;;;;14.00;1.67;;;10.50;99.90;;;;;;5076909;28;20127;-70
2023/12/24 07:54:18;;;;;;;11.60;2.05;;;10.50;99.90;;;;;;5079678;28;20056;-70
2023/12/24 07:56:43;;;;;;;7.40;1.73;;;10.50;99.90;;;;;;5071695;28;20093;-70
2023/12/24 07:59:09;;;;;;;14.17;1.83;;;10.50;99.90;;;;;;5087990;28;20135;-70
2023/12/24 08:01:37;;;;;;;10.93;1.73;;;10.50;99.90;;;;;;5073965;28;20082;-70
2023/12/24 08:04:03;;;;;;;11.23;2.00;;;10.50;99.90;;;;;;5078976;28;20435;-70
2023/12/24 08:06:29;;;;;;;6.47;1.63;;;10.60;99.90;;;;;;5081226;28;20438;-70
2023/12/24 08:08:56;;;;;;;9.30;2.20;;;10.60;99.90;;;;;;5063923;28;20036;-70
2023/12/24 08:11:21;;;;;;;11.10;1.50;;;10.60;99.90;;;;;;5079507;28;20441;-70
2023/12/24 08:13:47;;;;;;;9.37;2.47;;;10.60;99.90;;;;;;5082538;28;20040;-70
2023/12/24 08:16:12;;;;;;;12.57;1.53;;;10.60;99.90;;;;;;5085228;28;20463;-70
2023/12/24 08:18:38;;;;;;;11.87;1.97;;;10.60;99.90;;;;;;5077400;28;20123;-70
2023/12/24 08:21:06;;;;;;;11.00;1.70;;;10.60;99.90;;;;;;5086425;28;20051;-70
2023/12/24 08:23:32;;;;;;;12.45;2.47;;;10.60;99.90;;;;;;5083159;28;20111;-70
2023/12/24 08:25:58;;;;;;;4.93;1.85;;;10.70;99.90;;;;;;5080012;28;20058;-70
2023/12/24 08:28:23;;;;;;;13.70;2.03;;;10.70;99.90;;;;;;5087094;28;20093;-70
2023/12/24 08:30:49;;;;;;;7.13;1.83;;;10.70;99.90;;;;;;5090075;28;20055;-70
2023/12/24 08:33:15;;;;;;;14.00;1.67;;;10.70;99.90;;;;;;5088511;28;20546;-70
2023/12/24 08:35:40;;;;;;;15.00;1.50;;;10.70;99.90;;;;;;5082007;28;20511;-70
2023/12/24 08:38:06;;;;;;;14.17;2.60;;;10.70;99.90;;;;;;5084328;28;20044;-70
2023/12/24 08:40:32;;;;;;;17.57;2.00;;;10.70;99.90;;;;;;5083581;28;20051;-70
2023/12/24 08:42:57;;;;;;;6.27;1.50;;;10.80;99.90;;;;;;5088698;28;20042;-70
2023/12/24 08:45:23;;;;;;;9.80;1.50;;;10.80;99.90;;;;;;5082120;28;20296;-70
2023/12/24 08:47:49;;;;;;;12.20;1.77;;;10.80;99.90;;;;;;5078943;28;20403;-70
2023/12/24 08:50:15;;;;;;;7.47;2.00;;;10.80;99.90;;;;;;5091975;28;20055;-70
2023/12/24 08:52:41;;;;;;;9.38;1.40;;;10.80;99.90;;;;;;5083133;28;20039;-70
2023/12/24 08:55:07;;;;;;;10.47;1.63;;;10.80;99.90;;;;;;5089384;28;20403;-70
2023/12/24 08:57:33;;;;;;;10.18;1.90;;;10.90;99.90;;;;;;5084922;28;20300;-70
2023/12/24 08:59:58;;;;;;;9.60;1.23;;;10.90;99.90;;;;;;5080972;28;20496;-70
2023/12/24 09:02:24;;;;;;;9.93;1.97;;;10.90;99.90;;;;;;5081844;28;20052;-70
2023/12/24 09:04:50;;;;;;;9.77;1.50;;;10.90;99.90;;;;;;5076521;28;20040;-70
2023/12/24 09:07:17;;;;;;;14.03;1.60;;;10.90;99.90;;;;;;5086235;28;20567;-70
2023/12/24 09:09:43;;;;;;;17.60;1.75;;;11.00;99.90;;;;;;5080399;28;20036;-70
2023/12/24 09:12:08;;;;;;;8.85;1.42;;;11.00;99.90;;;;;;5064252;28;20473;-70
2023/12/24 09:14:34;;;;;;;7.00;1.67;;;11.00;99.90;;;;;;5080584;28;20059;-70
2023/12/24 09:17:00;;;;;;;9.40;2.08;;;11.10;99.90;;;;;;5082895;28;20047;-70
2023/12/24 09:19:26;;;;;;;17.83;2.23;;;11.10;99.90;;;;;;5083984;28;20048;-70
2023/12/24 09:21:51;;;;;;;11.50;1.53;;;11.10;99.90;;;;;;5077045;28;20036;-70
2023/12/24 09:24:17;;;;;;;11.87;1.33;;;11.10;99.90;;;;;;5080509;28;20036;-70
2023/12/24 09:26:42;;;;;;;9.40;2.27;;;11.10;99.90;;;;;;5083889;28;20412;-70
2023/12/24 09:29:11;;;;;;;10.07;1.80;;;11.10;99.90;;;;;;5087998;28;20431;-70
2023/12/24 09:31:39;;;;;;;10.68;1.50;;;11.10;99.90;;;;;;5080088;28;20298;-70
2023/12/24 09:34:08;;;;;;;12.40;1.60;;;11.20;99.90;;;;;;5080323;28;20472;-70
2023/12/24 09:36:39;;;;;;;6.07;1.27;;;11.20;99.90;;;;;;5084219;28;20634;-70
2023/12/24 09:39:07;;;;;;;7.03;1.40;;;11.20;99.90;;;;;;5089863;28;20132;-70
2023/12/24 09:41:33;;;;;;;14.68;1.88;;;11.20;99.90;;;;;;5084406;28;20032;-70
2023/12/24 09:44:00;;;;;;;5.47;0.97;;;11.20;99.90;;;;;;5084056;28;20081;-70
2023/12/24 09:46:26;;;;;;;13.77;1.88;;;11.20;99.90;;;;;;5079476;28;20043;-70
2023/12/24 09:48:52;;;;;;;8.10;1.30;;;11.20;99.90;;;;;;5079485;28;20032;-70
2023/12/24 09:51:18;;;;;;;6.93;1.20;;;11.20;99.90;;;;;;5088798;28;20506;-70
2023/12/24 09:53:48;;;;;;;15.13;1.88;;;11.30;99.90;;;;;;5082897;28;20051;-70
2023/12/24 09:56:15;;;;;;;8.60;1.92;;;11.30;99.90;;;;;;5065895;28;20130;-70
2023/12/24 09:58:41;;;;;;;8.43;2.00;;;11.30;99.90;;;;;;5085473;28;20126;-70
2023/12/24 10:01:07;;;;;;;10.45;1.67;;;11.20;99.90;;;;;;5086749;28;20433;-70
2023/12/24 10:03:33;;;;;;;11.52;2.53;;;11.20;99.90;;;;;;5063635;28;20040;-70
2023/12/24 10:06:02;;;;;;;8.43;1.38;;;11.20;99.90;;;;;;5076504;28;20518;-70
2023/12/24 10:08:28;;;;;;;12.80;1.75;;;11.30;99.90;;;;;;5087066;28;20523;-70
2023/12/24 10:10:54;;;;;;;8.30;1.58;;;11.30;99.90;;;;;;5081343;28;20036;-69
2023/12/24 10:13:22;;;;;;;8.70;2.07;;;11.40;99.90;;;;;;5079697;28;20244;-70
2023/12/24 10:16:05;;;;;;;14.45;1.77;;;11.40;99.90;;;;;;5078522;28;20182;-70
2023/12/24 10:18:31;;;;;;;11.07;1.98;;;11.40;99.90;;;;;;5083274;28;20036;-70
2023/12/24 10:21:09;;;;;;;13.30;2.15;;;11.40;99.90;;;;;;5080995;28;20037;-70
2023/12/24 10:23:36;;;;;;;7.95;1.60;;;11.50;99.90;;;;;;5081210;28;20137;-69
2023/12/24 10:26:07;;;;;;;9.73;1.83;;;11.50;99.90;;;;;;5085918;28;20043;-70
2023/12/24 10:28:33;;;;;;;9.27;2.28;;;11.50;99.90;;;;;;5093596;28;20039;-70
2023/12/24 10:31:07;;;;;;;10.07;1.40;;;11.50;99.90;;;;;;5081277;28;20110;-70
2023/12/24 10:33:33;;;;;;;12.70;1.75;;;11.50;99.90;;;;;;5087787;28;20492;-70
2023/12/24 10:35:58;;;;;;;11.90;1.70;;;11.60;99.90;;;;;;5083253;28;20051;-70
2023/12/24 10:38:30;;;;;;;12.00;1.67;;;11.70;99.90;;;;;;5080491;28;20048;-70
2023/12/24 10:40:57;;;;;;;6.53;1.15;;;11.60;99.90;;;;;;5079906;28;20043;-70
2023/12/24 10:43:23;;;;;;;8.48;2.15;;;11.70;99.90;;;;;;5084707;28;20040;-70
2023/12/24 10:45:49;;;;;;;10.45;1.60;;;11.70;99.90;;;;;;5062784;28;20097;-70
2023/12/24 10:48:15;;;;;;;13.15;2.10;;;11.70;99.90;;;;;;5085743;28;20044;-71
2023/12/24 10:50:43;;;;;;;9.23;1.20;;;11.80;99.90;;;;;;5080185;28;20432;-70
2023/12/24 10:53:10;;;;;;;8.70;1.17;;;11.80;99.90;;;;;;5087922;28;20048;-70
2023/12/24 10:55:36;;;;;;;14.13;1.52;;;11.70;99.90;;;;;;5084921;28;20446;-69
2023/12/24 10:58:29;;;;;;;8.18;2.38;;;11.80;99.90;;;;;;5084962;28;20072;-70
2023/12/24 11:01:05;;;;;;;5.57;1.45;;;11.80;99.90;;;;;;5083303;28;20052;-69
2023/12/24 11:03:52;;;;;;;6.15;0.98;;;11.70;99.90;;;;;;5085230;28;20488;-68
2023/12/24 11:06:56;;;;;;;8.15;1.58;;;11.70;99.90;;;;;;5078269;28;20040;-68
2023/12/24 11:09:22;;;;;;;10.80;2.53;;;11.60;99.90;;;;;;5063439;28;20047;-68
2023/12/24 11:11:51;;;;;;;9.27;1.33;;;11.60;99.90;;;;;;5078215;28;20492;-68
2023/12/24 11:14:36;;;;;;;6.60;1.40;;;11.60;99.90;;;;;;5080651;28;20040;-68
2023/12/24 11:17:02;;;;;;;11.68;1.48;;;11.60;99.90;;;;;;5068970;28;20040;-68
2023/12/24 11:19:28;;;;;;;4.93;1.27;;;11.60;99.90;;;;;;5085106;28;20382;-69
2023/12/24 11:22:07;;;;;;;6.88;1.23;;;11.60;99.90;;;;;;5084645;28;20068;-68
2023/12/24 11:24:34;;;;;;;9.35;2.20;;;11.60;99.90;;;;;;5084667;28;20068;-70
2023/12/24 11:26:59;;;;;;;14.75;2.53;;;11.50;99.90;;;;;;5081374;28;20055;-70
2023/12/24 11:29:40;;;;;;;8.30;2.10;;;11.70;99.90;;;;;;5070794;28;20154;-68
2023/12/24 11:32:24;;;;;;;6.85;2.08;;;11.60;99.90;;;;;;5085741;28;20131;-67
2023/12/24 11:34:59;;;;;;;9.50;1.30;;;11.70;99.90;;;;;;5082521;28;20037;-68
2023/12/24 11:37:35;;;;;;;6.15;1.45;;;11.60;99.90;;;;;;5086331;28;20036;-69
2023/12/24 11:40:14;;;;;;;9.05;1.45;;;11.70;99.90;;;;;;5089432;28;20052;-68
2023/12/24 11:42:49;;;;;;;8.07;1.35;;;11.70;99.90;;;;;;5061179;28;20036;-68
2023/12/24 11:45:26;;;;;;;4.88;1.30;;;11.70;99.90;;;;;;5085932;28;20072;-69
2023/12/24 11:47:53;;;;;;;12.80;1.75;;;11.70;99.90;;;;;;5087147;28;20110;-68
2023/12/24 11:50:23;;;;;;;3.80;1.20;;;11.80;99.90;;;;;;5082707;28;20052;-68
2023/12/24 11:52:49;;;;;;;7.72;1.60;;;11.80;99.90;;;;;;5084410;28;20287;-67
2023/12/24 11:55:19;;;;;;;8.27;1.58;;;11.80;99.90;;;;;;5083941;28;20442;-68
2023/12/24 11:57:45;;;;;;;13.05;1.50;;;11.80;99.90;;;;;;5086350;28;20040;-68
2023/12/24 12:00:27;;;;;;;5.50;1.58;;;11.80;99.90;;;;;;5087639;28;20405;-68
2023/12/24 12:02:55;;;;;;;6.30;1.50;;;11.80;99.90;;;;;;5086354;28;20091;-68
2023/12/24 12:05:22;;;;;;;9.32;1.73;;;11.80;99.90;;;;;;5087766;28;20138;-68
2023/12/24 12:07:47;;;;;;;13.10;1.80;;;11.80;99.90;;;;;;5090566;28;20517;-68
2023/12/24 12:10:13;;;;;;;15.17;2.00;;;11.80;99.90;;;;;;5088451;28;20071;-67
2023/12/24 12:12:38;;;;;;;12.73;1.70;;;11.80;99.90;;;;;;5087799;28;20365;-68
2023/12/24 12:15:07;;;;;;;5.60;1.20;;;11.90;99.90;;;;;;5087118;28;21223;-67
2023/12/24 12:17:33;;;;;;;8.52;1.40;;;11.80;99.90;;;;;;5086526;28;20058;-68
2023/12/24 12:20:01;;;;;;;14.20;2.72;;;11.80;99.90;;;;;;5089324;28;20450;-68
2023/12/24 12:22:27;;;;;;;12.60;2.07;;;11.80;99.90;;;;;;5090911;28;20036;-68
2023/12/24 12:24:52;;;;;;;9.60;1.73;;;11.80;99.90;;;;;;5084612;28;20039;-68
2023/12/24 12:27:18;;;;;;;12.83;1.40;;;11.90;99.90;;;;;;5087013;28;20059;-68
2023/12/24 12:29:46;;;;;;;10.17;1.37;;;11.90;99.90;;;;;;5086723;28;20542;-68
2023/12/24 12:32:12;;;;;;;8.23;1.20;;;11.90;99.90;;;;;;5083115;28;20138;-68
2023/12/24 12:34:39;;;;;;;15.35;1.98;;;11.90;99.90;;;;;;5081975;28;20036;-68
2023/12/24 12:37:05;;;;;;;8.07;1.33;;;11.90;99.90;;;;;;5087400;28;20052;-68
2023/12/24 12:39:34;;;;;;;6.70;1.10;;;11.90;99.90;;;;;;5087530;28;20032;-68
2023/12/24 12:42:01;;;;;;;10.88;1.65;;;11.90;99.90;;;;;;5083592;28;20633;-68
2023/12/24 12:44:29;;;;;;;5.70;1.05;;;12.00;99.90;;;;;;5088573;28;20078;-68
2023/12/24 12:46:55;;;;;;;6.47;2.28;;;11.90;99.90;;;;;;5091600;28;20047;-68